Tiempo atmosférico en la estación meteorológica de Lliria, València/Valencia (180 m.)



Fecha
DESCASC
Temp. máxima en grados centígrados (hora)
DESCASC
Temp. mínima en grados centígrados (hora)
DESCASC
Temp. media en grados centígrados
DESCASC
Racha de viento máxima en m/sg (hora)
DESCASC
Velocidad máxima media en intervalos de 10 minutos(hora)
DESCASC
Precipitaciones diarias en mm
DESCASC
Precipitaciones de 00:00 a 06:00 en mm
DESCASC
Precipitaciones de 06:00 a 12:00 en mm
DESCASC
Precipitaciones de 12:00 a 18:00 en mm
DESCASC
Precipitaciones de 18:00 a 24:00 en mm
DESCASC
22-01-2020 11.4 (13:10) 6 (23:59) 8.7 6.67 (15:30) 4.17 (15:30) 4.4 0.4 0 2.2 1.8
21-01-2020 10.1 (10:50) 6.2 (11:40) 8.2 15.83 (04:20) 8.33 (00:10) 69.8 3.4 37 29.4 0
20-01-2020 9.3 (00:00) 5.6 (03:00) 7.5 22.78 (17:10) 12.78 (16:30) 11.2 0 0 0.2 11
19-01-2020 10.9 (03:40) 5.9 (00:00) 8.4 12.5 (23:59) 6.39 (23:59) 13.4 0.6 6.8 5.8 0.2
18-01-2020 17 (15:10) 3.8 (00:00) 10.4 15.83 (16:10) 6.94 (16:20) 0 0 0 0 0
17-01-2020 18 (16:30) 5 (00:00) 11.5 12.22 (11:00) 7.78 (11:00) 0 0 0 0 0
16-01-2020 19.1 (15:30) 4.8 (00:00) 12 5.56 (17:10) 3.33 (16:40) 0 0 0 0 0
15-01-2020 19.9 (16:00) 0.8 (00:00) 10.3 8.89 (13:30) 5.56 (13:30) 0 0 0 0 0
14-01-2020 16.7 (15:20) -0.8 (-00:0) 8 8.33 (01:50) 4.17 (01:50) 0 0 0 0 0
13-01-2020 16.9 (14:10) 0.1 (00:00) 8.5 6.11 (07:40) 3.89 (07:10) 0 0 0 0 0
12-01-2020 15.5 (15:10) 0.8 (06:10) 8.2 5.56 (08:10) 3.61 (08:20) 0 0 0 0 0
11-01-2020 16.3 (14:50) 1.1 (00:00) 8.7 5.28 (02:10) 3.33 (05:50) 0 0 0 0 0
10-01-2020 15.2 (14:40) 3.3 (00:00) 9.2 11.94 (11:10) 6.11 (11:30) 0 0 0 0 0
09-01-2020 15.8 (15:30) 3.5 (00:00) 9.7 4.72 (09:10) 3.06 (08:30) 0 0 0 0 0
08-01-2020 15 (14:50) 2.3 (00:00) 8.6 4.72 (03:50) 3.33 (03:50) 0 0 0 0 0
07-01-2020 17.5 (15:10) 2.1 (00:00) 9.8 4.17 (01:10) 3.06 (06:20) 0 0 0 0 0
06-01-2020 15.8 (16:00) 2.6 (00:00) 9.2 5.56 (06:10) 3.33 (08:20) 0 0 0 0 0
05-01-2020 19.5 (14:50) 3.3 (00:00) 11.4 6.11 (05:00) 3.89 (05:00) 0 0 0 0 0
04-01-2020 16.7 (15:10) 1.7 (00:00) 9.2 4.72 (16:30) 3.33 (21:20) 0 0 0 0 0
03-01-2020 14 (14:50) 1.9 (00:00) 7.9 4.44 (06:10) 2.78 (04:50) 0 0 0 0 0
02-01-2020 14.4 (15:10) 4 (00:00) 9.2 4.17 (07:40) 3.06 (03:30) 0 0 0 0 0
01-01-2020 14.5 (15:50) 3 (00:00) 8.8 4.72 (17:10) 2.78 (01:50) 0 0 0 0 0
31-12-2019 14.9 (15:10) 3 (00:00) 8.9 4.17 (08:10) 3.06 (02:50) 0 0 0 0 0
30-12-2019 14.9 (15:40) 4.9 (00:00) 9.9 -- (--) -- (--) 0 0 0 0 0
29-12-2019 14.9 (15:20) 2.5 (00:00) 8.7 5 (08:10) 3.06 (08:20) 0 0 0 0 0
28-12-2019 15.1 (16:10) 2.3 (00:00) 8.7 5 (05:40) 3.61 (05:40) 0 0 0 0 0
27-12-2019 20 (15:10) 3.9 (00:00) 12 5.56 (09:10) 3.33 (09:00) 0 0 0 0 0

Gráficas

Temp. máximas Temp. mínimas Temp. medias Precipitaciones Rachas de viento máximas Velocidades máximas media en intervalos de 10 minutos

Datos horarios

Fecha y hora oficial Temperatura (ºC) Velocidad del viento (km/h) Dirección del viento Racha (km/h) Dirección de racha Precipitación (mm) Presión (hPa) Tendencia (hPa) Humedad (%)
2020-01-25 23:00:00 9.6 5 Noroeste 8 Noroeste 0 -- -- 94
2020-01-25 22:00:00 9.3 3 Norte 9 Noroeste 0 -- -- 93
2020-01-25 21:00:00 9.1 5 Norte 13 Noroeste 0.8 -- -- 91
2020-01-25 20:00:00 10.4 4 Noroeste 15 Sudeste 0 -- -- 88
2020-01-25 19:00:00 11.3 9 Sudeste 16 Sudeste 0.4 -- -- 93
2020-01-25 18:00:00 11.7 5 Sur 12 Sudeste 0 -- -- 90
2020-01-25 17:00:00 12.6 7 Sudeste 20 Sur 0 -- -- 85
2020-01-25 16:00:00 13.1 11 Sudeste 19 Sudeste 0 -- -- 81
2020-01-25 15:00:00 13.6 6 Sudeste 13 Este 0 -- -- 76
2020-01-25 14:00:00 13.8 8 Sudeste 15 Sudeste 0 -- -- 75
2020-01-25 13:00:00 12.9 5 Sur 9 Sur 0 -- -- 77
2020-01-25 12:00:00 13.2 4 Sudoeste 5 Noroeste 0 -- -- 75
2020-01-25 11:00:00 11.8 3 Noroeste 8 Noroeste 0 -- -- 86
2020-01-25 10:00:00 9.7 4 Noroeste 8 Noroeste 0 -- -- 95
2020-01-25 09:00:00 9.3 5 Noroeste 8 Noroeste 0 -- -- 95
2020-01-25 08:00:00 8.9 3 Norte 4 Norte 0 -- -- 96
2020-01-25 07:00:00 8.8 3 Oeste 4 Sudeste 0 -- -- 96
2020-01-25 06:00:00 8.9 4 Noroeste 6 Oeste 0 -- -- 96
2020-01-25 05:00:00 9 0 Calma 5 Noroeste 0 -- -- 95
2020-01-25 04:00:00 8.9 0 Calma 7 Noroeste 0 -- -- 95
2020-01-25 03:00:00 9.2 4 Noroeste 7 Norte 0 -- -- 95
2020-01-25 02:00:00 9.2 2 Noroeste 4 Sudoeste 0 -- -- 95
2020-01-25 01:00:00 9.4 4 Norte 5 Norte 0 -- -- 94
2020-01-25 00:00:00 9.3 0 Calma 4 Norte 0 -- -- 94
2020-01-24 23:00:00 9.6 0 Calma 6 Norte 0 -- -- 92
2020-01-24 22:00:00 9.7 4 Norte 6 Norte 0 -- -- 92
2020-01-24 21:00:00 9.7 0 Calma 7 Este 0 -- -- 91
2020-01-24 20:00:00 9.9 4 Nordeste 6 Nordeste 0 -- -- 90
2020-01-24 19:00:00 10.2 0 Calma 2 Oeste 0 -- -- 91
2020-01-24 18:00:00 11.7 0 Calma 10 Sur 0 -- -- 83
2020-01-24 17:00:00 13.6 6 Sudeste 11 Sudeste 0 -- -- 71
2020-01-24 16:00:00 13.6 3 Sur 8 Oeste 0 -- -- 68
2020-01-24 15:00:00 13.3 5 Sudoeste 8 Sudoeste 0 -- -- 69
2020-01-24 14:00:00 13.5 0 Calma 8 Noroeste 0 -- -- 65
2020-01-24 13:00:00 13.3 2 Norte 8 Oeste 0 -- -- 72
2020-01-24 12:00:00 12.4 4 Oeste 8 Oeste 0 -- -- 77
2020-01-24 11:00:00 10.7 0 Calma 9 Noroeste 0 -- -- 92
2020-01-24 10:00:00 9 5 Noroeste 7 Noroeste 0 -- -- 97
2020-01-24 09:00:00 7.3 0 Calma 6 Noroeste 0 -- -- 97
2020-01-24 08:00:00 6.8 4 Noroeste 7 Noroeste 0 -- -- 98
2020-01-24 07:00:00 6.2 5 Noroeste 6 Noroeste 0 -- -- 97
2020-01-24 06:00:00 6.6 6 Noroeste 9 Noroeste 0.2 -- -- 98
2020-01-24 05:00:00 5.2 2 Nordeste 8 Noroeste 0 -- -- 96
2020-01-24 04:00:00 6.1 3 Noroeste 6 Norte 0 -- -- 96
2020-01-24 03:00:00 6.7 2 Noroeste 4 Noroeste 0 -- -- 97
2020-01-24 02:00:00 8.2 3 Norte 5 Norte 0 -- -- 96
2020-01-24 01:00:00 9.5 0 Calma 8 Oeste 0.6 -- -- 96
2020-01-24 00:00:00 9.3 5 Oeste 10 Sudoeste 1 -- -- 96
2020-01-23 23:00:00 9.1 2 Norte 4 Norte 0 -- -- 96
2020-01-23 22:00:00 9.5 2 Noroeste 7 Norte 0.6 -- -- 95
2020-01-23 21:00:00 9.7 4 Noroeste 6 Noroeste 2.2 -- -- 95
2020-01-23 20:00:00 9.9 5 Oeste 7 Sudoeste 0.8 -- -- 93
2020-01-23 19:00:00 10.6 4 Sudeste 9 Este 0 -- -- 87
2020-01-23 18:00:00 11.1 6 Sudeste 15 Sudeste 0 -- -- 82
2020-01-23 17:00:00 11.9 7 Sudeste 15 Sudeste 0 -- -- 78
2020-01-23 16:00:00 12.4 8 Sudeste 12 Sudeste 0 -- -- 72
2020-01-23 15:00:00 12.5 6 Este 17 Este 0 -- -- 71
2020-01-23 14:00:00 13.3 8 Sudeste 15 Sudeste 0 -- -- 68
2020-01-23 13:00:00 12.9 7 Sudeste 13 Este 0 -- -- 65
2020-01-23 12:00:00 12.5 0 Calma 6 Sudoeste 0 -- -- 60
2020-01-23 11:00:00 9.5 4 Oeste 13 Noroeste 0 -- -- 77
2020-01-23 10:00:00 6.5 6 Noroeste 15 Noroeste 0 -- -- 86
2020-01-23 09:00:00 4.2 9 Noroeste 16 Noroeste 0 -- -- 92
2020-01-23 08:00:00 4.1 11 Noroeste 15 Noroeste 0 -- -- 91
2020-01-23 07:00:00 3.9 5 Noroeste 10 Noroeste 0 -- -- 92
2020-01-23 06:00:00 4 3 Norte 9 Noroeste 0 -- -- 92
2020-01-23 05:00:00 5 2 Sudoeste 18 Noroeste 0 -- -- 88
2020-01-23 04:00:00 5.7 13 Noroeste 19 Noroeste 0 -- -- 87
2020-01-23 03:00:00 5.7 8 Noroeste 14 Noroeste 0 -- -- 90
2020-01-23 02:00:00 6.1 9 Noroeste 13 Noroeste 0 -- -- 91
2020-01-23 01:00:00 6.2 6 Noroeste 16 Oeste 0 -- -- 92
2020-01-23 00:00:00 6 8 Noroeste 15 Noroeste 0 -- -- 93
2020-01-22 23:00:00 6.5 7 Noroeste 14 Noroeste 0 -- -- 93
2020-01-22 22:00:00 7.4 10 Noroeste 15 Noroeste 0 -- -- 93
2020-01-22 21:00:00 7.7 10 Noroeste 15 Noroeste 0 -- -- 94
2020-01-22 20:00:00 8 6 Sur 9 Sur 0 -- -- 94
2020-01-22 19:00:00 8.2 6 Norte 12 Noroeste 1.8 -- -- 94
2020-01-22 18:00:00 8.7 4 Sudeste 15 Noroeste 1.6 -- -- 91
2020-01-22 17:00:00 9.5 3 Oeste 13 Noroeste 0.4 -- -- 85
2020-01-22 16:00:00 9.4 10 Oeste 24 Sudoeste 0 -- -- 82
2020-01-22 15:00:00 10.9 9 Oeste 15 Oeste 0 -- -- 84
2020-01-22 14:00:00 10.8 6 Sur 14 Sudoeste 0.2 -- -- 86
2020-01-22 13:00:00 11.3 6 Oeste 12 Oeste 0 -- -- 84
2020-01-22 12:00:00 10.6 5 Noroeste 12 Noroeste 0 -- -- 87
2020-01-22 11:00:00 9.7 0 Calma 9 Oeste 0 -- -- 90
2020-01-22 10:00:00 9 3 Noroeste 10 Noroeste 0 -- -- 90
2020-01-22 09:00:00 8.6 3 Noroeste 10 Sudoeste 0 -- -- 92
2020-01-22 08:00:00 8.7 2 Este 21 Este 0 -- -- 89
2020-01-22 07:00:00 9.3 11 Este 23 Este 0 -- -- 87
2020-01-22 06:00:00 7.9 2 Norte 6 Nordeste 0 -- -- 93
2020-01-22 05:00:00 9 5 Norte 13 Nordeste 0 -- -- 89
2020-01-22 04:00:00 9.2 9 Nordeste 14 Nordeste 0 -- -- 92
2020-01-22 03:00:00 9.8 5 Este 13 Este 0 -- -- 93
2020-01-22 02:00:00 10.1 8 Este 15 Este 0.2 -- -- 94
2020-01-22 01:00:00 9 6 Nordeste 8 Norte 0.2 -- -- 93
2020-01-22 00:00:00 8.7 6 Nordeste 9 Nordeste 0 -- -- 92
2020-01-21 23:00:00 8.8 5 Nordeste 10 Nordeste 0 -- -- 93
2020-01-21 22:00:00 9.2 7 Nordeste 10 Nordeste 0 -- -- 93
2020-01-21 21:00:00 9.9 6 Nordeste 17 Nordeste 0 -- -- 88
2020-01-21 20:00:00 9.7 6 Nordeste 19 Nordeste 0 -- -- 88
2020-01-21 19:00:00 9.8 12 Nordeste 20 Nordeste 0 -- -- 89
2020-01-21 18:00:00 7.9 6 Noroeste 9 Noroeste 0.2 -- -- 96
2020-01-21 17:00:00 7.7 4 Sudeste 15 Noroeste 0.6 -- -- 96
2020-01-21 16:00:00 6.4 11 Noroeste 29 Noroeste 4.6 -- -- 96
2020-01-21 15:00:00 7 12 Noroeste 30 Noroeste 7.6 -- -- 97
2020-01-21 14:00:00 7.2 8 Oeste 48 Sudeste 7.6 -- -- 95
2020-01-21 13:00:00 6.4 15 Noroeste 28 Noroeste 8.8 -- -- 96
2020-01-21 12:00:00 7 9 Nordeste 37 Este 24.8 -- -- 95
2020-01-21 11:00:00 8.7 24 Sudeste 42 Sudeste 3.4 -- -- 86
2020-01-21 10:00:00 7.6 15 Norte 40 Norte 1.2 -- -- 89
2020-01-21 09:00:00 7.8 19 Norte 38 Nordeste 2.8 -- -- 88
2020-01-21 08:00:00 8.1 20 Nordeste 39 Nordeste 3.8 -- -- 87
2020-01-21 07:00:00 8.5 26 Nordeste 49 Nordeste 1 -- -- 83
2020-01-21 06:00:00 8.1 24 Norte 52 Nordeste 1 -- -- 80
2020-01-21 05:00:00 8 30 Nordeste 57 Nordeste 0.2 -- -- 81
2020-01-21 04:00:00 7.8 27 Nordeste 54 Nordeste 0.2 -- -- 82
2020-01-21 03:00:00 7.9 27 Nordeste 54 Norte 0.2 -- -- 80
2020-01-21 02:00:00 7.6 28 Nordeste 50 Norte 1 -- -- 82
2020-01-21 01:00:00 7.9 28 Nordeste 54 Nordeste 0.8 -- -- 83
2020-01-21 00:00:00 7.5 22 Nordeste 62 Nordeste 0.8 -- -- 83
2020-01-20 23:00:00 7.6 30 Nordeste 78 Nordeste 0.2 -- -- 76
2020-01-20 22:00:00 7.7 28 Nordeste 62 Nordeste 0.4 -- -- 76
2020-01-20 21:00:00 7.4 36 Nordeste 67 Nordeste 2.4 -- -- 79
2020-01-20 20:00:00 6.5 28 Nordeste 65 Nordeste 5.4 -- -- 88
2020-01-20 19:00:00 6.6 39 Nordeste 68 Nordeste 1.8 -- -- 85
2020-01-20 18:00:00 7.6 38 Nordeste 82 Nordeste 0 -- -- 73
2020-01-20 17:00:00 8.1 40 Nordeste 78 Nordeste 0 -- -- 71
2020-01-20 16:00:00 8.8 44 Nordeste 72 Nordeste 0 -- -- 66
2020-01-20 15:00:00 8.5 33 Nordeste 68 Nordeste 0 -- -- 67
2020-01-20 14:00:00 8.1 28 Nordeste 59 Nordeste 0.2 -- -- 70
2020-01-20 13:00:00 7.6 21 Nordeste 59 Nordeste 0 -- -- 70
2020-01-20 12:00:00 7.4 19 Nordeste 47 Nordeste 0 -- -- 73
2020-01-20 11:00:00 7.7 30 Nordeste 62 Este 0 -- -- 67
2020-01-20 10:00:00 7.3 22 Nordeste 58 Nordeste 0 -- -- 67
2020-01-20 09:00:00 7 26 Nordeste 46 Nordeste 0 -- -- 68
2020-01-20 08:00:00 7.1 13 Nordeste 42 Norte 0 -- -- 64
2020-01-20 07:00:00 7.3 19 Nordeste 48 Nordeste 0 -- -- 61
2020-01-20 06:00:00 7.3 14 Nordeste 41 Nordeste 0 -- -- 59
2020-01-20 05:00:00 7.3 9 Nordeste 37 Nordeste 0 -- -- 57
2020-01-20 04:00:00 6.6 21 Nordeste 37 Norte 0 -- -- 65
2020-01-20 03:00:00 5.6 18 Nordeste 54 Nordeste 0 -- -- 73
2020-01-20 02:00:00 7.1 30 Nordeste 57 Nordeste 0 -- -- 59
2020-01-20 01:00:00 8.6 31 Nordeste 57 Nordeste 0 -- -- 49
2020-01-20 00:00:00 9.3 23 Nordeste 45 Este 0 -- -- 41
2020-01-19 23:00:00 9.1 13 Nordeste 44 Este 0 -- -- 48
2020-01-19 22:00:00 9.3 20 Nordeste 41 Nordeste 0 -- -- 50
2020-01-19 21:00:00 8.8 13 Este 38 Nordeste 0 -- -- 56
2020-01-19 20:00:00 8.7 12 Nordeste 44 Este 0 -- -- 60
2020-01-19 19:00:00 7 6 Nordeste 18 Nordeste 0.2 -- -- 77
2020-01-19 18:00:00 6.4 9 Este 20 Nordeste 1.2 -- -- 85
2020-01-19 17:00:00 6.5 8 Nordeste 19 Nordeste 0.6 -- -- 81
2020-01-19 16:00:00 6.4 8 Nordeste 29 Norte 1 -- -- 83
2020-01-19 15:00:00 6.1 15 Nordeste 33 Nordeste 1.2 -- -- 82
2020-01-19 14:00:00 6.3 8 Nordeste 24 Norte 1.4 -- -- 81
2020-01-19 13:00:00 7.5 9 Norte 28 Norte 0.4 -- -- 79
2020-01-19 12:00:00 7.6 8 Noroeste 21 Noroeste 0.6 -- -- 87
2020-01-19 11:00:00 7 5 Noroeste 21 Noroeste 2.6 -- -- 88
2020-01-19 10:00:00 7.7 10 Norte 28 Nordeste 2.8 -- -- 82
2020-01-19 09:00:00 8.7 5 Nordeste 12 Noroeste 0.2 -- -- 80
2020-01-19 08:00:00 8.6 8 Nordeste 20 Este 0.6 -- -- 75
2020-01-19 07:00:00 10.2 8 Nordeste 17 Norte 0 -- -- 61
2020-01-19 06:00:00 8.9 3 Sudeste 13 Oeste 0 -- -- 87
2020-01-19 05:00:00 9 0 Calma 10 Sur 0 -- -- 88
2020-01-19 04:00:00 9.9 9 Noroeste 19 Norte 0 -- -- 81
2020-01-19 03:00:00 9.9 6 Norte 23 Norte 0.6 -- -- 82
2020-01-19 02:00:00 9.7 9 Noroeste 14 Noroeste 0 -- -- 89
2020-01-19 01:00:00 10.3 5 Nordeste 12 Norte 0 -- -- 84
2020-01-19 00:00:00 9.5 3 Norte 7 Nordeste 0 -- -- 85
2020-01-18 23:00:00 10.8 2 Noroeste 8 Norte 0 -- -- 80
2020-01-18 22:00:00 11 0 Calma 6 Noroeste 0 -- -- 79
2020-01-18 21:00:00 12.5 3 Sudoeste 15 Oeste 0 -- -- 71
2020-01-18 20:00:00 12.9 9 Oeste 17 Sudoeste 0 -- -- 68
2020-01-18 19:00:00 13.4 5 Oeste 22 Oeste 0 -- -- 65
2020-01-18 18:00:00 14 15 Oeste 31 Oeste 0 -- -- 61
2020-01-18 17:00:00 15.7 17 Oeste 57 Oeste 0 -- -- 54
2020-01-18 16:00:00 16.6 20 Oeste 39 Oeste 0 -- -- 50
2020-01-18 15:00:00 16.9 17 Oeste 36 Oeste 0 -- -- 48
2020-01-18 14:00:00 16.3 13 Oeste 27 Oeste 0 -- -- 48
2020-01-18 13:00:00 14.9 9 Sudoeste 13 Sudoeste 0 -- -- 54
2020-01-18 12:00:00 11.1 6 Sur 13 Sur 0 -- -- 62
2020-01-18 11:00:00 10.3 3 Sur 14 Norte 0 -- -- 63
2020-01-18 10:00:00 7.4 4 Noroeste 6 Noroeste 0 -- -- 73
2020-01-18 09:00:00 6.6 2 Noroeste 10 Nordeste 0 -- -- 72
2020-01-18 08:00:00 6.3 3 Nordeste 12 Noroeste 0 -- -- 71
2020-01-18 07:00:00 6.1 7 Noroeste 15 Noroeste 0 -- -- 71
2020-01-18 06:00:00 4.1 6 Noroeste 11 Noroeste 0 -- -- 80
2020-01-18 05:00:00 5 3 Norte 8 Norte 0 -- -- 75
2020-01-18 04:00:00 5.3 3 Nordeste 8 Sudeste 0 -- -- 75
2020-01-18 03:00:00 5.7 2 Sudeste 7 Noroeste 0 -- -- 74
2020-01-18 02:00:00 6.7 4 Noroeste 12 Noroeste 0 -- -- 69
2020-01-18 01:00:00 6.7 11 Noroeste 15 Noroeste 0 -- -- 69
2020-01-18 00:00:00 6.5 7 Noroeste 10 Noroeste 0 -- -- 68
2020-01-17 23:00:00 6.6 5 Noroeste 14 Norte 0 -- -- 66
2020-01-17 22:00:00 7.1 4 Norte 8 Norte 0 -- -- 66
2020-01-17 21:00:00 9.1 5 Noroeste 13 Norte 0 -- -- 60
2020-01-17 20:00:00 11.2 10 Oeste 14 Oeste 0 -- -- 56
2020-01-17 19:00:00 13.2 9 Oeste 25 Oeste 0 -- -- 50
2020-01-17 18:00:00 15.7 11 Oeste 28 Noroeste 0 -- -- 42
2020-01-17 17:00:00 17.2 12 Oeste 26 Oeste 0 -- -- 41
2020-01-17 16:00:00 17.1 14 Oeste 33 Oeste 0 -- -- 43
2020-01-17 15:00:00 16.8 23 Oeste 39 Oeste 0 -- -- 44
2020-01-17 14:00:00 16.9 26 Oeste 40 Oeste 0 -- -- 42
2020-01-17 13:00:00 17 25 Oeste 44 Oeste 0 -- -- 43
2020-01-17 12:00:00 16.6 20 Oeste 44 Oeste 0 -- -- 44
2020-01-17 11:00:00 15.2 28 Oeste 44 Oeste 0 -- -- 46
2020-01-17 10:00:00 13 17 Oeste 31 Oeste 0 -- -- 52
2020-01-17 09:00:00 11.1 14 Oeste 26 Oeste 0 -- -- 52
2020-01-17 08:00:00 9.4 10 Noroeste 19 Oeste 0 -- -- 57
2020-01-17 07:00:00 8.6 14 Noroeste 19 Oeste 0 -- -- 59
2020-01-17 06:00:00 7.3 6 Oeste 17 Sudoeste 0 -- -- 64
2020-01-17 05:00:00 6.4 9 Oeste 21 Oeste 0 -- -- 72
2020-01-17 04:00:00 8.7 11 Oeste 23 Oeste 0 -- -- 64
2020-01-17 03:00:00 6.3 3 Noroeste 9 Noroeste 0 -- -- 78
2020-01-17 02:00:00 7.1 5 Norte 9 Norte 0 -- -- 78
2020-01-17 01:00:00 6.5 8 Noroeste 13 Noroeste 0 -- -- 87
2020-01-17 00:00:00 5.6 3 Nordeste 9 Norte 0 -- -- 87
2020-01-16 23:00:00 6.9 9 Noroeste 16 Noroeste 0 -- -- 85
2020-01-16 22:00:00 6.7 6 Noroeste 11 Noroeste 0 -- -- 86
2020-01-16 21:00:00 7 8 Noroeste 12 Noroeste 0 -- -- 86
2020-01-16 20:00:00 8.7 5 Norte 8 Norte 0 -- -- 78
2020-01-16 19:00:00 9.6 3 Nordeste 9 Este 0 -- -- 76
2020-01-16 18:00:00 14.4 5 Este 20 Sudeste 0 -- -- 59
2020-01-16 17:00:00 17.4 10 Sudeste 18 Sudeste 0 -- -- 51
2020-01-16 16:00:00 18.7 10 Sur 15 Sur 0 -- -- 47
2020-01-16 15:00:00 19 6 Sur 16 Sudeste 0 -- -- 44
2020-01-16 14:00:00 18.4 5 Este 9 Sudeste 0 -- -- 44
2020-01-16 13:00:00 17.6 3 Este 10 Sudeste 0 -- -- 45
2020-01-16 12:00:00 16.4 2 Sudeste 6 Sudoeste 0 -- -- 48
2020-01-16 11:00:00 13.5 3 Oeste 7 Noroeste 0 -- -- 57
2020-01-16 10:00:00 9.8 4 Noroeste 8 Noroeste 0 -- -- 71
2020-01-16 09:00:00 6.3 3 Norte 13 Noroeste 0 -- -- 80
2020-01-16 08:00:00 4.9 8 Noroeste 13 Noroeste 0 -- -- 87
2020-01-16 07:00:00 5.5 9 Noroeste 13 Norte 0 -- -- 83
2020-01-16 06:00:00 5.2 3 Nordeste 12 Noroeste 0 -- -- 83
2020-01-16 05:00:00 6.9 6 Noroeste 13 Noroeste 0 -- -- 82
2020-01-16 04:00:00 7.1 5 Noroeste 10 Noroeste 0 -- -- 82
2020-01-16 03:00:00 6.1 2 Noroeste 7 Sudoeste 0 -- -- 83
2020-01-16 02:00:00 9.4 3 Oeste 9 Noroeste 0 -- -- 70
2020-01-16 01:00:00 11.5 7 Noroeste 16 Noroeste 0 -- -- 65
2020-01-16 00:00:00 10.2 8 Noroeste 13 Noroeste 0 -- -- 69
2020-01-15 23:00:00 11 8 Noroeste 23 Noroeste 0 -- -- 65
2020-01-15 22:00:00 11.5 7 Noroeste 30 Noroeste 0 -- -- 62
2020-01-15 21:00:00 12.7 11 Noroeste 19 Noroeste 0 -- -- 59
2020-01-15 20:00:00 12.1 4 Norte 14 Noroeste 0 -- -- 60
2020-01-15 19:00:00 14.4 10 Oeste 25 Oeste 0 -- -- 53
2020-01-15 18:00:00 16.1 12 Oeste 27 Oeste 0 -- -- 48
2020-01-15 17:00:00 18.8 15 Oeste 31 Oeste 0 -- -- 40
2020-01-15 16:00:00 19.9 14 Oeste 30 Oeste 0 -- -- 36
2020-01-15 15:00:00 19.1 14 Oeste 32 Oeste 0 -- -- 36
2020-01-15 14:00:00 17.3 13 Oeste 32 Oeste 0 -- -- 40
2020-01-15 13:00:00 17.5 13 Oeste 24 Noroeste 0 -- -- 41
2020-01-15 12:00:00 14.4 2 Nordeste 8 Este 0 -- -- 46
2020-01-15 11:00:00 11.7 4 Este 8 Este 0 -- -- 49
2020-01-15 10:00:00 6.8 3 Norte 11 Noroeste 0 -- -- 59
2020-01-15 09:00:00 1.8 5 Noroeste 9 Norte 0 -- -- 75
2020-01-15 08:00:00 2.7 5 Norte 10 Norte 0 -- -- 73
2020-01-15 07:00:00 2.8 5 Norte 13 Oeste 0 -- -- 68
2020-01-15 06:00:00 1.5 4 Norte 9 Noroeste 0 -- -- 73
2020-01-15 05:00:00 1.7 2 Norte 14 Norte 0 -- -- 73
2020-01-15 04:00:00 0.8 5 Norte 13 Noroeste 0 -- -- 79
2020-01-15 03:00:00 1.6 7 Noroeste 12 Noroeste 0 -- -- 77
2020-01-15 02:00:00 2.1 8 Noroeste 12 Noroeste 0 -- -- 77
2020-01-15 01:00:00 1.9 5 Norte 9 Norte 0 -- -- 75
2020-01-15 00:00:00 1.9 3 Noroeste 8 Noroeste 0 -- -- 77
2020-01-14 23:00:00 4 4 Noroeste 14 Noroeste 0 -- -- 64
2020-01-14 22:00:00 4.5 10 Noroeste 16 Noroeste 0 -- -- 63
2020-01-14 21:00:00 4.1 10 Noroeste 15 Noroeste 0 -- -- 65
2020-01-14 20:00:00 4 6 Noroeste 8 Noroeste 0 -- -- 75
2020-01-14 19:00:00 6.5 0 Calma 13 Sudeste 0 -- -- 64
2020-01-14 18:00:00 11.4 10 Sudeste 16 Sudeste 0 -- -- 40
2020-01-14 17:00:00 15.8 7 Sudeste 13 Este 0 -- -- 31
2020-01-14 16:00:00 16.6 7 Sudeste 17 Sur 0 -- -- 28
2020-01-14 15:00:00 16.5 8 Sudeste 14 Sur 0 -- -- 27
2020-01-14 14:00:00 16.3 5 Sudeste 12 Sur 0 -- -- 26
2020-01-14 13:00:00 14.9 4 Este 8 Este 0 -- -- 27
2020-01-14 12:00:00 13 3 Nordeste 9 Nordeste 0 -- -- 27
2020-01-14 11:00:00 10.6 3 Oeste 10 Oeste 0 -- -- 31
2020-01-14 10:00:00 6.9 3 Noroeste 13 Noroeste 0 -- -- 39
2020-01-14 09:00:00 4.1 8 Noroeste 16 Noroeste 0 -- -- 42
2020-01-14 08:00:00 3.1 10 Noroeste 14 Noroeste 0 -- -- 45
2020-01-14 07:00:00 1.6 5 Noroeste 13 Noroeste 0 -- -- 48
2020-01-14 06:00:00 2.5 7 Noroeste 10 Noroeste 0 -- -- 45
2020-01-14 05:00:00 0.6 2 Sudeste 10 Norte 0 -- -- 65
2020-01-14 04:00:00 0.5 3 Nordeste 11 Norte 0 -- -- 68
2020-01-14 03:00:00 3.4 8 Nordeste 21 Noroeste 0 -- -- 54
2020-01-14 02:00:00 5.9 12 Noroeste 30 Oeste 0 -- -- 48
2020-01-14 01:00:00 3.9 4 Norte 11 Nordeste 0 -- -- 59
2020-01-14 00:00:00 1.4 4 Noroeste 12 Noroeste 0 -- -- 79
2020-01-13 23:00:00 2.7 3 Norte 8 Norte 0 -- -- 79
2020-01-13 22:00:00 3.5 2 Norte 12 Noroeste 0 -- -- 76
2020-01-13 21:00:00 4.5 7 Noroeste 14 Noroeste 0 -- -- 76
2020-01-13 20:00:00 5.3 5 Noroeste 9 Noroeste 0 -- -- 78
2020-01-13 19:00:00 7 2 Nordeste 6 Nordeste 0 -- -- 72
2020-01-13 18:00:00 10.8 2 Este 6 Este 0 -- -- 53
2020-01-13 17:00:00 14.6 4 Este 7 Este 0 -- -- 40
2020-01-13 16:00:00 15.7 4 Este 14 Sudeste 0 -- -- 32
2020-01-13 15:00:00 16.5 9 Sudeste 14 Sur 0 -- -- 30
2020-01-13 14:00:00 16.6 8 Sur 14 Sur 0 -- -- 31
2020-01-13 13:00:00 15.7 6 Sur 13 Sur 0 -- -- 32
2020-01-13 12:00:00 14 7 Sudoeste 16 Noroeste 0 -- -- 33
2020-01-13 11:00:00 11.1 6 Noroeste 17 Noroeste 0 -- -- 32
2020-01-13 10:00:00 7.5 3 Noroeste 11 Noroeste 0 -- -- 41
2020-01-13 09:00:00 2.1 7 Noroeste 10 Oeste 0 -- -- 58
2020-01-13 08:00:00 2 7 Noroeste 22 Oeste 0 -- -- 56
2020-01-13 07:00:00 3.6 14 Noroeste 20 Noroeste 0 -- -- 48
2020-01-13 06:00:00 0.9 4 Norte 12 Noroeste 0 -- -- 62
2020-01-13 05:00:00 1.6 9 Noroeste 18 Noroeste 0 -- -- 61
2020-01-13 04:00:00 2.1 10 Noroeste 16 Noroeste 0 -- -- 62
2020-01-13 03:00:00 1.4 7 Noroeste 14 Noroeste 0 -- -- 70
2020-01-13 02:00:00 1.8 8 Noroeste 15 Noroeste 0 -- -- 71
2020-01-13 01:00:00 2.4 6 Noroeste 16 Noroeste 0 -- -- 70
2020-01-13 00:00:00 2.6 9 Noroeste 15 Noroeste 0 -- -- 72
2020-01-12 23:00:00 2.4 8 Noroeste 12 Noroeste 0 -- -- 76
2020-01-12 22:00:00 2.1 6 Noroeste 9 Noroeste 0 -- -- 79
2020-01-12 21:00:00 2.9 4 Norte 11 Noroeste 0 -- -- 76
2020-01-12 20:00:00 4.5 8 Noroeste 13 Noroeste 0 -- -- 73
2020-01-12 19:00:00 5.9 4 Norte 9 Sudeste 0 -- -- 77
2020-01-12 18:00:00 11 4 Sudeste 8 Sudeste 0 -- -- 55
2020-01-12 17:00:00 15.1 2 Sur 12 Sudeste 0 -- -- 37
2020-01-12 16:00:00 15.5 4 Sudeste 12 Sudeste 0 -- -- 35
2020-01-12 15:00:00 15.3 5 Sudeste 13 Sur 0 -- -- 34
2020-01-12 14:00:00 15.1 9 Sur 17 Sudeste 0 -- -- 37
2020-01-12 13:00:00 14.7 5 Sur 12 Sudeste 0 -- -- 30
2020-01-12 12:00:00 13.6 6 Sur 9 Sudeste 0 -- -- 34
2020-01-12 11:00:00 10.5 4 Oeste 13 Noroeste 0 -- -- 38
2020-01-12 10:00:00 6.3 9 Noroeste 17 Noroeste 0 -- -- 49
2020-01-12 09:00:00 3.1 13 Noroeste 20 Noroeste 0 -- -- 57
2020-01-12 08:00:00 2.1 12 Noroeste 17 Noroeste 0 -- -- 61
2020-01-12 07:00:00 1.9 10 Noroeste 15 Noroeste 0 -- -- 64
2020-01-12 06:00:00 1.1 2 Noroeste 12 Noroeste 0 -- -- 69
2020-01-12 05:00:00 2.7 12 Noroeste 18 Noroeste 0 -- -- 66
2020-01-12 04:00:00 2.6 9 Noroeste 15 Noroeste 0 -- -- 72
2020-01-12 03:00:00 2.5 10 Noroeste 15 Noroeste 0 -- -- 73
2020-01-12 02:00:00 2 8 Noroeste 13 Noroeste 0 -- -- 78
2020-01-12 01:00:00 1.3 8 Noroeste 11 Noroeste 0 -- -- 83
2020-01-12 00:00:00 1.1 5 Noroeste 9 Noroeste 0 -- -- 85
2020-01-11 23:00:00 4.3 5 Norte 16 Noroeste 0 -- -- 74
2020-01-11 22:00:00 4.7 9 Noroeste 15 Noroeste 0 -- -- 77
2020-01-11 21:00:00 4.9 7 Noroeste 12 Noroeste 0 -- -- 77
2020-01-11 20:00:00 4.6 6 Noroeste 9 Norte 0 -- -- 83
2020-01-11 19:00:00 7.5 3 Norte 9 Este 0 -- -- 72
2020-01-11 18:00:00 11.7 5 Sudeste 14 Sur 0 -- -- 54
2020-01-11 17:00:00 14.9 9 Sudeste 16 Sudeste 0 -- -- 39
2020-01-11 16:00:00 16.2 7 Sudeste 13 Sudeste 0 -- -- 36
2020-01-11 15:00:00 16.3 6 Sur 15 Sur 0 -- -- 35
2020-01-11 14:00:00 15.8 8 Sur 17 Sur 0 -- -- 36
2020-01-11 13:00:00 15.2 9 Sur 13 Sur 0 -- -- 36
2020-01-11 12:00:00 13.7 8 Oeste 14 Oeste 0 -- -- 41
2020-01-11 11:00:00 11.2 9 Noroeste 16 Oeste 0 -- -- 50
2020-01-11 10:00:00 7.8 4 Noroeste 10 Noroeste 0 -- -- 61
2020-01-11 09:00:00 3.5 4 Noroeste 12 Noroeste 0 -- -- 75
2020-01-11 08:00:00 3.6 10 Noroeste 14 Noroeste 0 -- -- 75
2020-01-11 07:00:00 3 9 Noroeste 13 Noroeste 0 -- -- 78
2020-01-11 06:00:00 4.5 10 Noroeste 17 Noroeste 0 -- -- 72
2020-01-11 05:00:00 4.1 8 Noroeste 14 Noroeste 0 -- -- 74
2020-01-11 04:00:00 4.7 9 Noroeste 16 Noroeste 0 -- -- 73
2020-01-11 03:00:00 4.1 8 Noroeste 19 Noroeste 0 -- -- 74
2020-01-11 02:00:00 3.9 11 Noroeste 14 Noroeste 0 -- -- 76
2020-01-11 01:00:00 2.1 4 Noroeste 9 Sudeste 0 -- -- 84
2020-01-11 00:00:00 4.2 5 Noroeste 12 Noroeste 0 -- -- 75
2020-01-10 23:00:00 3.7 5 Noroeste 11 Noroeste 0 -- -- 78
2020-01-10 22:00:00 4.1 3 Norte 9 Noroeste 0 -- -- 78
2020-01-10 21:00:00 4.5 0 Calma 8 Noroeste 0 -- -- 78
2020-01-10 20:00:00 6.2 5 Noroeste 12 Norte 0 -- -- 72
2020-01-10 19:00:00 7.6 6 Noroeste 10 Este 0 -- -- 71
2020-01-10 18:00:00 11.3 6 Sur 21 Norte 0 -- -- 58
2020-01-10 17:00:00 12.2 3 Norte 10 Este 0 -- -- 53
2020-01-10 16:00:00 14 9 Sudeste 19 Sudeste 0 -- -- 48
2020-01-10 15:00:00 14.8 11 Sur 24 Nordeste 0 -- -- 42
2020-01-10 14:00:00 14.7 14 Norte 31 Norte 0 -- -- 37
2020-01-10 13:00:00 14.8 18 Norte 33 Norte 0 -- -- 38
2020-01-10 12:00:00 14.4 14 Noroeste 43 Norte 0 -- -- 39
2020-01-10 11:00:00 14 8 Norte 22 Noroeste 0 -- -- 42
2020-01-10 10:00:00 12.4 10 Oeste 33 Noroeste 0 -- -- 51
2020-01-10 09:00:00 6.2 5 Oeste 10 Noroeste 0 -- -- 86
2020-01-10 08:00:00 4 5 Noroeste 9 Noroeste 0 -- -- 91
2020-01-10 07:00:00 4.3 4 Noroeste 15 Noroeste 0 -- -- 90
2020-01-10 06:00:00 5 10 Noroeste 14 Noroeste 0 -- -- 89
2020-01-10 05:00:00 4.6 8 Noroeste 13 Noroeste 0 -- -- 90
2020-01-10 04:00:00 4 6 Noroeste 10 Noroeste 0 -- -- 92
2020-01-10 03:00:00 4.2 4 Noroeste 10 Noroeste 0 -- -- 92
2020-01-10 02:00:00 4.9 2 Norte 12 Noroeste 0 -- -- 90
2020-01-10 01:00:00 4.6 6 Noroeste 11 Noroeste 0 -- -- 92
2020-01-10 00:00:00 5.8 5 Noroeste 12 Noroeste 0 -- -- 89
2020-01-09 23:00:00 7.2 6 Noroeste 10 Noroeste 0 -- -- 87
2020-01-09 22:00:00 6.6 10 Noroeste 12 Noroeste 0 -- -- 92
2020-01-09 21:00:00 5.6 5 Noroeste 6 Noroeste 0 -- -- 92
2020-01-09 20:00:00 7.2 5 Norte 7 Norte 0 -- -- 86
2020-01-09 19:00:00 8.7 3 Norte 11 Sur 0 -- -- 81
2020-01-09 18:00:00 12.1 4 Sudeste 13 Sudeste 0 -- -- 68
2020-01-09 17:00:00 14.9 7 Sudeste 12 Este 0 -- -- 58
2020-01-09 16:00:00 15.6 6 Sudeste 12 Sur 0 -- -- 55
2020-01-09 15:00:00 15.6 4 Este 14 Sudeste 0 -- -- 54
2020-01-09 14:00:00 15.3 6 Sudeste 17 Sudeste 0 -- -- 56
2020-01-09 13:00:00 14.4 8 Sur 13 Sur 0 -- -- 59
2020-01-09 12:00:00 13.5 5 Sur 14 Noroeste 0 -- -- 61
2020-01-09 11:00:00 10.4 8 Noroeste 15 Noroeste 0 -- -- 68
2020-01-09 10:00:00 6.8 8 Noroeste 17 Noroeste 0 -- -- 83
2020-01-09 09:00:00 4 9 Noroeste 16 Noroeste 0 -- -- 91
2020-01-09 08:00:00 3.6 9 Noroeste 16 Noroeste 0 -- -- 92
2020-01-09 07:00:00 3.7 5 Norte 13 Noroeste 0 -- -- 92
2020-01-09 06:00:00 3.7 8 Noroeste 12 Noroeste 0 -- -- 93
2020-01-09 05:00:00 4 3 Noroeste 11 Noroeste 0 -- -- 92
2020-01-09 04:00:00 4.5 5 Noroeste 15 Noroeste 0 -- -- 91
2020-01-09 03:00:00 4.6 9 Noroeste 15 Noroeste 0 -- -- 91
2020-01-09 02:00:00 4.9 9 Noroeste 14 Noroeste 0 -- -- 91
2020-01-09 01:00:00 5 8 Noroeste 14 Noroeste 0 -- -- 91
2020-01-09 00:00:00 5.4 10 Noroeste 14 Noroeste 0 -- -- 90
2020-01-08 23:00:00 5.4 8 Noroeste 12 Noroeste 0 -- -- 92
2020-01-08 22:00:00 5.6 7 Noroeste 10 Noroeste 0 -- -- 91
2020-01-08 21:00:00 5 0 Calma 8 Noroeste 0 -- -- 90
2020-01-08 20:00:00 6.8 7 Noroeste 9 Noroeste 0 -- -- 90
2020-01-08 19:00:00 7.3 4 Norte 5 Norte 0 -- -- 88
2020-01-08 18:00:00 11.2 2 Oeste 7 Sudoeste 0 -- -- 78
2020-01-08 17:00:00 14.5 4 Oeste 11 Sudoeste 0 -- -- 65
2020-01-08 16:00:00 14.7 6 Sudoeste 13 Sudoeste 0 -- -- 65
2020-01-08 15:00:00 14.9 8 Sudoeste 15 Sur 0 -- -- 65
2020-01-08 14:00:00 13.9 6 Sur 13 Sudeste 0 -- -- 68
2020-01-08 13:00:00 12.9 3 Nordeste 11 Sudeste 0 -- -- 64
2020-01-08 12:00:00 12.5 6 Sur 13 Sur 0 -- -- 71
2020-01-08 11:00:00 11.2 7 Sudoeste 11 Sudoeste 0 -- -- 73
2020-01-08 10:00:00 8.6 0 Calma 6 Norte 0 -- -- 68
2020-01-08 09:00:00 3.6 4 Norte 8 Noroeste 0 -- -- 84
2020-01-08 08:00:00 2.7 4 Norte 6 Norte 0 -- -- 84
2020-01-08 07:00:00 3.4 4 Noroeste 8 Noroeste 0 -- -- 77
2020-01-08 06:00:00 2.5 4 Norte 6 Noroeste 0 -- -- 83
2020-01-08 05:00:00 4.4 0 Calma 14 Noroeste 0 -- -- 73
2020-01-08 04:00:00 5.7 10 Noroeste 17 Noroeste 0 -- -- 64
2020-01-08 03:00:00 4.5 8 Noroeste 13 Noroeste 0 -- -- 72
2020-01-08 02:00:00 4.7 8 Noroeste 12 Noroeste 0 -- -- 74
2020-01-08 01:00:00 4.3 3 Norte 14 Noroeste 0 -- -- 78
2020-01-08 00:00:00 4 10 Noroeste 14 Noroeste 0 -- -- 83
2020-01-07 23:00:00 4.6 6 Noroeste 12 Noroeste 0 -- -- 82
2020-01-07 22:00:00 4.7 4 Noroeste 10 Noroeste 0 -- -- 82
2020-01-07 21:00:00 4.6 6 Noroeste 9 Noroeste 0 -- -- 87
2020-01-07 20:00:00 5.3 5 Noroeste 10 Noroeste 0 -- -- 89
2020-01-07 19:00:00 7.2 3 Norte 5 Sudeste 0 -- -- 82
2020-01-07 18:00:00 12 2 Este 11 Sudeste 0 -- -- 65
2020-01-07 17:00:00 16.1 6 Sudeste 14 Sudeste 0 -- -- 48
2020-01-07 16:00:00 17.4 5 Sudeste 10 Sudeste 0 -- -- 42
2020-01-07 15:00:00 17.4 4 Sur 8 Sur 0 -- -- 38
2020-01-07 14:00:00 16.7 4 Sur 9 Sudoeste 0 -- -- 39
2020-01-07 13:00:00 14.9 2 Este 8 Sur 0 -- -- 44
2020-01-07 12:00:00 13.3 7 Sur 12 Oeste 0 -- -- 50
2020-01-07 11:00:00 9.8 4 Nordeste 9 Noroeste 0 -- -- 69
2020-01-07 10:00:00 6.2 7 Noroeste 10 Noroeste 0 -- -- 71
2020-01-07 09:00:00 2.3 3 Norte 12 Noroeste 0 -- -- 88
2020-01-07 08:00:00 2.5 7 Noroeste 13 Noroeste 0 -- -- 88
2020-01-07 07:00:00 2.7 8 Noroeste 15 Noroeste 0 -- -- 90
2020-01-07 06:00:00 2.2 9 Noroeste 14 Noroeste 0 -- -- 93
2020-01-07 05:00:00 2.7 2 Noroeste 13 Noroeste 0 -- -- 89
2020-01-07 04:00:00 3.6 5 Noroeste 12 Noroeste 0 -- -- 90
2020-01-07 03:00:00 4 4 Noroeste 12 Noroeste 0 -- -- 90
2020-01-07 02:00:00 3.9 8 Noroeste 15 Noroeste 0 -- -- 90
2020-01-07 01:00:00 3.7 9 Noroeste 12 Noroeste 0 -- -- 91
2020-01-07 00:00:00 4.1 7 Noroeste 10 Noroeste 0 -- -- 90
2020-01-06 23:00:00 4.3 6 Noroeste 10 Noroeste 0 -- -- 90
2020-01-06 22:00:00 4.2 7 Noroeste 9 Noroeste 0 -- -- 92
2020-01-06 21:00:00 4.6 6 Noroeste 9 Noroeste 0 -- -- 92
2020-01-06 20:00:00 4.9 4 Noroeste 9 Noroeste 0 -- -- 90
2020-01-06 19:00:00 7 2 Norte 6 Este 0 -- -- 83
2020-01-06 18:00:00 11.7 6 Sudeste 10 Sudeste 0 -- -- 66
2020-01-06 17:00:00 15 5 Sudeste 10 Este 0 -- -- 55
2020-01-06 16:00:00 15.8 3 Este 14 Sudeste 0 -- -- 49
2020-01-06 15:00:00 15.6 6 Sudeste 17 Sudeste 0 -- -- 51
2020-01-06 14:00:00 15.4 4 Sur 10 Sudeste 0 -- -- 51
2020-01-06 13:00:00 14.3 5 Sur 12 Sur 0 -- -- 54
2020-01-06 12:00:00 13.2 4 Sudoeste 7 Sudoeste 0 -- -- 56
2020-01-06 11:00:00 10.4 2 Oeste 11 Noroeste 0 -- -- 62
2020-01-06 10:00:00 6.3 8 Noroeste 16 Noroeste 0 -- -- 71